sensor_id;sensor_type;location;lat;lon;timestamp;P1;durP1;ratioP1;P2;durP2;ratioP2
48849;SDS011;63210;53.370;6.770;2023-05-10T00:01:49;25.38;;;13.82;;
48849;SDS011;63210;53.370;6.770;2023-05-10T00:04:18;27.35;;;14.23;;
48849;SDS011;63210;53.370;6.770;2023-05-10T00:06:43;23.10;;;13.80;;
48849;SDS011;63210;53.370;6.770;2023-05-10T00:09:11;25.08;;;13.85;;
48849;SDS011;63210;53.370;6.770;2023-05-10T00:11:37;19.27;;;13.73;;
48849;SDS011;63210;53.370;6.770;2023-05-10T00:14:02;16.67;;;13.07;;
48849;SDS011;63210;53.370;6.770;2023-05-10T00:16:30;14.43;;;12.15;;
48849;SDS011;63210;53.370;6.770;2023-05-10T00:18:55;13.63;;;12.05;;
48849;SDS011;63210;53.370;6.770;2023-05-10T00:21:23;14.13;;;12.68;;
48849;SDS011;63210;53.370;6.770;2023-05-10T00:23:53;16.85;;;13.35;;
48849;SDS011;63210;53.370;6.770;2023-05-10T00:26:18;12.73;;;11.38;;
48849;SDS011;63210;53.370;6.770;2023-05-10T00:28:44;14.82;;;13.23;;
48849;SDS011;63210;53.370;6.770;2023-05-10T00:31:09;18.25;;;13.98;;
48849;SDS011;63210;53.370;6.770;2023-05-10T00:33:34;17.30;;;14.40;;
48849;SDS011;63210;53.370;6.770;2023-05-10T00:36:00;15.40;;;13.05;;
48849;SDS011;63210;53.370;6.770;2023-05-10T00:38:25;15.38;;;13.70;;
48849;SDS011;63210;53.370;6.770;2023-05-10T00:40:51;15.55;;;13.95;;
48849;SDS011;63210;53.370;6.770;2023-05-10T00:43:16;16.03;;;13.70;;
48849;SDS011;63210;53.370;6.770;2023-05-10T00:45:41;14.57;;;13.00;;
48849;SDS011;63210;53.370;6.770;2023-05-10T00:48:07;13.90;;;12.23;;
48849;SDS011;63210;53.370;6.770;2023-05-10T00:50:32;14.00;;;12.52;;
48849;SDS011;63210;53.370;6.770;2023-05-10T00:53:00;15.70;;;12.30;;
48849;SDS011;63210;53.370;6.770;2023-05-10T00:55:26;14.38;;;11.68;;
48849;SDS011;63210;53.370;6.770;2023-05-10T00:57:52;13.68;;;11.88;;
48849;SDS011;63210;53.370;6.770;2023-05-10T01:00:17;16.25;;;12.48;;
48849;SDS011;63210;53.370;6.770;2023-05-10T01:02:48;16.02;;;12.52;;
48849;SDS011;63210;53.370;6.770;2023-05-10T01:05:20;17.83;;;12.68;;
48849;SDS011;63210;53.370;6.770;2023-05-10T01:07:45;15.82;;;12.65;;
48849;SDS011;63210;53.370;6.770;2023-05-10T01:10:11;15.90;;;12.02;;
48849;SDS011;63210;53.370;6.770;2023-05-10T01:12:37;16.48;;;11.75;;
48849;SDS011;63210;53.370;6.770;2023-05-10T01:15:12;13.43;;;10.60;;
48849;SDS011;63210;53.370;6.770;2023-05-10T01:17:41;15.98;;;12.02;;
48849;SDS011;63210;53.370;6.770;2023-05-10T01:20:07;12.98;;;10.23;;
48849;SDS011;63210;53.370;6.770;2023-05-10T01:22:48;12.43;;;9.90;;
48849;SDS011;63210;53.370;6.770;2023-05-10T01:32:57;13.93;;;10.50;;
48849;SDS011;63210;53.370;6.770;2023-05-10T01:35:43;14.55;;;10.23;;
48849;SDS011;63210;53.370;6.770;2023-05-10T01:38:17;13.13;;;9.50;;
48849;SDS011;63210;53.370;6.770;2023-05-10T01:43:22;15.25;;;11.18;;
48849;SDS011;63210;53.370;6.770;2023-05-10T01:45:56;16.48;;;11.20;;
48849;SDS011;63210;53.370;6.770;2023-05-10T01:48:23;15.80;;;11.98;;
48849;SDS011;63210;53.370;6.770;2023-05-10T01:50:49;13.30;;;11.35;;
48849;SDS011;63210;53.370;6.770;2023-05-10T01:53:17;16.30;;;12.43;;
48849;SDS011;63210;53.370;6.770;2023-05-10T01:55:45;12.90;;;9.77;;
48849;SDS011;63210;53.370;6.770;2023-05-10T01:58:13;13.45;;;11.15;;
48849;SDS011;63210;53.370;6.770;2023-05-10T02:00:42;14.57;;;11.50;;
48849;SDS011;63210;53.370;6.770;2023-05-10T02:03:10;11.95;;;9.63;;
48849;SDS011;63210;53.370;6.770;2023-05-10T02:08:14;15.20;;;10.63;;
48849;SDS011;63210;53.370;6.770;2023-05-10T02:10:42;15.13;;;11.20;;
48849;SDS011;63210;53.370;6.770;2023-05-10T02:13:15;16.75;;;11.13;;
48849;SDS011;63210;53.370;6.770;2023-05-10T02:15:41;15.70;;;10.88;;
48849;SDS011;63210;53.370;6.770;2023-05-10T02:18:06;18.30;;;12.32;;
48849;SDS011;63210;53.370;6.770;2023-05-10T02:20:32;15.02;;;11.73;;
48849;SDS011;63210;53.370;6.770;2023-05-10T02:22:58;14.88;;;11.40;;
48849;SDS011;63210;53.370;6.770;2023-05-10T02:25:24;16.27;;;11.77;;
48849;SDS011;63210;53.370;6.770;2023-05-10T02:27:51;15.38;;;11.77;;
48849;SDS011;63210;53.370;6.770;2023-05-10T02:30:18;18.55;;;11.90;;
48849;SDS011;63210;53.370;6.770;2023-05-10T02:32:43;19.33;;;13.25;;
48849;SDS011;63210;53.370;6.770;2023-05-10T02:35:09;17.42;;;12.68;;
48849;SDS011;63210;53.370;6.770;2023-05-10T02:37:35;17.40;;;11.50;;
48849;SDS011;63210;53.370;6.770;2023-05-10T02:40:01;23.10;;;14.27;;
48849;SDS011;63210;53.370;6.770;2023-05-10T02:42:31;16.42;;;12.82;;
48849;SDS011;63210;53.370;6.770;2023-05-10T02:45:01;18.75;;;12.95;;
48849;SDS011;63210;53.370;6.770;2023-05-10T02:47:28;17.15;;;11.23;;
48849;SDS011;63210;53.370;6.770;2023-05-10T02:49:53;13.93;;;10.23;;
48849;SDS011;63210;53.370;6.770;2023-05-10T02:52:20;14.63;;;11.18;;
48849;SDS011;63210;53.370;6.770;2023-05-10T02:54:49;13.18;;;11.13;;
48849;SDS011;63210;53.370;6.770;2023-05-10T02:57:16;12.27;;;10.07;;
48849;SDS011;63210;53.370;6.770;2023-05-10T02:59:47;12.95;;;10.70;;
48849;SDS011;63210;53.370;6.770;2023-05-10T03:02:12;12.55;;;9.98;;
48849;SDS011;63210;53.370;6.770;2023-05-10T03:04:38;12.60;;;10.48;;
48849;SDS011;63210;53.370;6.770;2023-05-10T03:07:03;14.27;;;9.95;;
48849;SDS011;63210;53.370;6.770;2023-05-10T03:09:29;11.63;;;9.52;;
48849;SDS011;63210;53.370;6.770;2023-05-10T03:12:04;12.68;;;10.40;;
48849;SDS011;63210;53.370;6.770;2023-05-10T03:17:22;12.82;;;10.07;;
48849;SDS011;63210;53.370;6.770;2023-05-10T03:19:56;12.52;;;10.07;;
48849;SDS011;63210;53.370;6.770;2023-05-10T03:22:33;15.30;;;10.82;;
48849;SDS011;63210;53.370;6.770;2023-05-10T03:25:00;12.07;;;10.48;;
48849;SDS011;63210;53.370;6.770;2023-05-10T03:27:26;14.23;;;11.25;;
48849;SDS011;63210;53.370;6.770;2023-05-10T03:29:52;13.93;;;10.77;;
48849;SDS011;63210;53.370;6.770;2023-05-10T03:32:18;16.35;;;12.02;;
48849;SDS011;63210;53.370;6.770;2023-05-10T03:34:44;15.30;;;11.93;;
48849;SDS011;63210;53.370;6.770;2023-05-10T03:37:12;15.88;;;12.32;;
48849;SDS011;63210;53.370;6.770;2023-05-10T03:39:52;15.13;;;11.27;;
48849;SDS011;63210;53.370;6.770;2023-05-10T03:42:21;17.20;;;12.82;;
48849;SDS011;63210;53.370;6.770;2023-05-10T03:44:48;20.25;;;13.25;;
48849;SDS011;63210;53.370;6.770;2023-05-10T03:47:14;19.60;;;14.00;;
48849;SDS011;63210;53.370;6.770;2023-05-10T03:49:40;18.35;;;13.63;;
48849;SDS011;63210;53.370;6.770;2023-05-10T03:52:05;19.08;;;13.38;;
48849;SDS011;63210;53.370;6.770;2023-05-10T03:54:31;17.67;;;13.80;;
48849;SDS011;63210;53.370;6.770;2023-05-10T03:56:57;20.27;;;14.65;;
48849;SDS011;63210;53.370;6.770;2023-05-10T03:59:22;19.38;;;13.05;;
48849;SDS011;63210;53.370;6.770;2023-05-10T04:01:48;22.80;;;14.70;;
48849;SDS011;63210;53.370;6.770;2023-05-10T04:04:13;17.85;;;12.98;;
48849;SDS011;63210;53.370;6.770;2023-05-10T04:06:46;20.77;;;13.80;;
48849;SDS011;63210;53.370;6.770;2023-05-10T04:09:21;21.17;;;13.75;;
48849;SDS011;63210;53.370;6.770;2023-05-10T04:11:46;25.73;;;15.05;;
48849;SDS011;63210;53.370;6.770;2023-05-10T04:14:11;23.45;;;15.27;;
48849;SDS011;63210;53.370;6.770;2023-05-10T04:16:38;26.83;;;15.73;;
48849;SDS011;63210;53.370;6.770;2023-05-10T04:19:09;30.40;;;15.70;;
48849;SDS011;63210;53.370;6.770;2023-05-10T04:21:35;29.20;;;15.00;;
48849;SDS011;63210;53.370;6.770;2023-05-10T04:24:06;25.23;;;14.52;;
48849;SDS011;63210;53.370;6.770;2023-05-10T04:26:32;27.50;;;14.93;;
48849;SDS011;63210;53.370;6.770;2023-05-10T04:28:57;23.83;;;14.88;;
48849;SDS011;63210;53.370;6.770;2023-05-10T04:31:23;22.75;;;14.95;;
48849;SDS011;63210;53.370;6.770;2023-05-10T04:34:04;24.25;;;15.05;;
48849;SDS011;63210;53.370;6.770;2023-05-10T04:36:34;29.80;;;16.45;;
48849;SDS011;63210;53.370;6.770;2023-05-10T04:39:01;26.20;;;14.32;;
48849;SDS011;63210;53.370;6.770;2023-05-10T04:41:28;28.45;;;13.98;;
48849;SDS011;63210;53.370;6.770;2023-05-10T04:43:56;20.40;;;13.40;;
48849;SDS011;63210;53.370;6.770;2023-05-10T04:46:21;27.48;;;15.32;;
48849;SDS011;63210;53.370;6.770;2023-05-10T04:48:47;22.40;;;13.32;;
48849;SDS011;63210;53.370;6.770;2023-05-10T04:51:12;23.13;;;13.55;;
48849;SDS011;63210;53.370;6.770;2023-05-10T04:53:38;19.95;;;12.55;;
48849;SDS011;63210;53.370;6.770;2023-05-10T04:56:06;20.90;;;13.40;;
48849;SDS011;63210;53.370;6.770;2023-05-10T04:58:32;21.17;;;12.25;;
48849;SDS011;63210;53.370;6.770;2023-05-10T05:01:04;16.85;;;12.10;;
48849;SDS011;63210;53.370;6.770;2023-05-10T05:03:29;17.10;;;12.05;;
48849;SDS011;63210;53.370;6.770;2023-05-10T05:05:55;17.55;;;10.98;;
48849;SDS011;63210;53.370;6.770;2023-05-10T05:08:20;16.52;;;10.73;;
48849;SDS011;63210;53.370;6.770;2023-05-10T05:10:46;17.83;;;11.15;;
48849;SDS011;63210;53.370;6.770;2023-05-10T05:13:18;15.57;;;11.10;;
48849;SDS011;63210;53.370;6.770;2023-05-10T05:15:52;14.63;;;10.85;;
48849;SDS011;63210;53.370;6.770;2023-05-10T05:18:19;16.27;;;10.80;;
48849;SDS011;63210;53.370;6.770;2023-05-10T05:21:00;16.17;;;11.05;;
48849;SDS011;63210;53.370;6.770;2023-05-10T05:23:32;17.02;;;10.73;;
48849;SDS011;63210;53.370;6.770;2023-05-10T05:28:33;12.88;;;10.23;;
48849;SDS011;63210;53.370;6.770;2023-05-10T05:31:02;17.60;;;11.15;;
48849;SDS011;63210;53.370;6.770;2023-05-10T05:33:30;18.55;;;11.10;;
48849;SDS011;63210;53.370;6.770;2023-05-10T05:35:55;13.70;;;10.27;;
48849;SDS011;63210;53.370;6.770;2023-05-10T05:38:21;18.77;;;11.88;;
48849;SDS011;63210;53.370;6.770;2023-05-10T05:40:47;14.35;;;10.02;;
48849;SDS011;63210;53.370;6.770;2023-05-10T05:43:12;13.98;;;10.32;;
48849;SDS011;63210;53.370;6.770;2023-05-10T05:45:41;16.35;;;10.40;;
48849;SDS011;63210;53.370;6.770;2023-05-10T05:48:07;9.48;;;8.48;;
48849;SDS011;63210;53.370;6.770;2023-05-10T05:50:32;12.65;;;8.80;;
48849;SDS011;63210;53.370;6.770;2023-05-10T05:52:57;8.38;;;6.80;;
48849;SDS011;63210;53.370;6.770;2023-05-10T05:55:37;7.85;;;6.88;;
48849;SDS011;63210;53.370;6.770;2023-05-10T05:58:05;9.57;;;7.45;;
48849;SDS011;63210;53.370;6.770;2023-05-10T06:00:30;6.40;;;5.63;;
48849;SDS011;63210;53.370;6.770;2023-05-10T06:02:58;3.50;;;3.20;;
48849;SDS011;63210;53.370;6.770;2023-05-10T06:05:24;1.48;;;1.38;;
48849;SDS011;63210;53.370;6.770;2023-05-10T06:07:49;1.33;;;1.23;;
48849;SDS011;63210;53.370;6.770;2023-05-10T06:10:14;0.93;;;0.90;;
48849;SDS011;63210;53.370;6.770;2023-05-10T06:12:40;0.75;;;0.75;;
48849;SDS011;63210;53.370;6.770;2023-05-10T06:15:05;0.85;;;0.85;;
48849;SDS011;63210;53.370;6.770;2023-05-10T06:17:31;1.00;;;1.00;;
48849;SDS011;63210;53.370;6.770;2023-05-10T06:19:58;1.00;;;1.00;;
48849;SDS011;63210;53.370;6.770;2023-05-10T06:22:26;0.88;;;0.88;;
48849;SDS011;63210;53.370;6.770;2023-05-10T06:24:52;1.40;;;1.30;;
48849;SDS011;63210;53.370;6.770;2023-05-10T06:27:17;1.42;;;1.33;;
48849;SDS011;63210;53.370;6.770;2023-05-10T06:29:42;1.90;;;1.40;;
48849;SDS011;63210;53.370;6.770;2023-05-10T06:32:08;1.98;;;1.50;;
48849;SDS011;63210;53.370;6.770;2023-05-10T06:34:33;2.88;;;2.20;;
48849;SDS011;63210;53.370;6.770;2023-05-10T06:36:58;2.95;;;2.60;;
48849;SDS011;63210;53.370;6.770;2023-05-10T06:39:24;2.63;;;2.42;;
48849;SDS011;63210;53.370;6.770;2023-05-10T06:41:49;5.15;;;2.90;;
48849;SDS011;63210;53.370;6.770;2023-05-10T06:47:52;4.00;;;3.20;;
48849;SDS011;63210;53.370;6.770;2023-05-10T06:50:18;6.13;;;3.72;;
48849;SDS011;63210;53.370;6.770;2023-05-10T06:52:43;6.38;;;3.83;;
48849;SDS011;63210;53.370;6.770;2023-05-10T06:55:08;9.30;;;3.90;;
48849;SDS011;63210;53.370;6.770;2023-05-10T06:57:34;11.60;;;3.95;;
48849;SDS011;63210;53.370;6.770;2023-05-10T07:00:00;7.00;;;3.08;;
48849;SDS011;63210;53.370;6.770;2023-05-10T07:02:31;6.53;;;3.25;;
48849;SDS011;63210;53.370;6.770;2023-05-10T07:04:57;5.13;;;3.53;;
48849;SDS011;63210;53.370;6.770;2023-05-10T07:07:22;5.38;;;3.88;;
48849;SDS011;63210;53.370;6.770;2023-05-10T07:09:48;4.28;;;3.75;;
48849;SDS011;63210;53.370;6.770;2023-05-10T07:12:15;5.75;;;4.40;;
48849;SDS011;63210;53.370;6.770;2023-05-10T07:14:40;4.53;;;4.13;;
48849;SDS011;63210;53.370;6.770;2023-05-10T07:17:06;5.10;;;4.70;;
48849;SDS011;63210;53.370;6.770;2023-05-10T07:19:32;6.55;;;5.75;;
48849;SDS011;63210;53.370;6.770;2023-05-10T07:21:57;6.47;;;5.88;;
48849;SDS011;63210;53.370;6.770;2023-05-10T07:24:23;6.32;;;5.25;;
48849;SDS011;63210;53.370;6.770;2023-05-10T07:26:48;6.53;;;5.93;;
48849;SDS011;63210;53.370;6.770;2023-05-10T07:29:13;7.82;;;7.13;;
48849;SDS011;63210;53.370;6.770;2023-05-10T07:31:39;8.52;;;7.05;;
48849;SDS011;63210;53.370;6.770;2023-05-10T07:34:07;10.68;;;8.02;;
48849;SDS011;63210;53.370;6.770;2023-05-10T07:36:32;9.38;;;8.57;;
48849;SDS011;63210;53.370;6.770;2023-05-10T07:39:00;8.73;;;7.85;;
48849;SDS011;63210;53.370;6.770;2023-05-10T07:41:33;11.13;;;10.02;;
48849;SDS011;63210;53.370;6.770;2023-05-10T07:44:01;12.18;;;10.98;;
48849;SDS011;63210;53.370;6.770;2023-05-10T07:46:27;11.32;;;9.30;;
48849;SDS011;63210;53.370;6.770;2023-05-10T07:48:53;11.73;;;10.57;;
48849;SDS011;63210;53.370;6.770;2023-05-10T07:51:19;12.50;;;11.20;;
48849;SDS011;63210;53.370;6.770;2023-05-10T07:53:44;15.00;;;13.40;;
48849;SDS011;63210;53.370;6.770;2023-05-10T07:56:23;15.05;;;13.45;;
48849;SDS011;63210;53.370;6.770;2023-05-10T07:58:55;14.90;;;13.40;;
48849;SDS011;63210;53.370;6.770;2023-05-10T08:01:24;8.93;;;8.10;;
48849;SDS011;63210;53.370;6.770;2023-05-10T08:03:51;9.45;;;8.63;;
48849;SDS011;63210;53.370;6.770;2023-05-10T08:06:18;8.88;;;8.07;;
48849;SDS011;63210;53.370;6.770;2023-05-10T08:08:47;8.73;;;7.93;;
48849;SDS011;63210;53.370;6.770;2023-05-10T08:11:15;9.48;;;8.60;;
48849;SDS011;63210;53.370;6.770;2023-05-10T08:13:41;8.93;;;8.02;;
48849;SDS011;63210;53.370;6.770;2023-05-10T08:16:07;9.35;;;8.40;;
48849;SDS011;63210;53.370;6.770;2023-05-10T08:18:35;9.82;;;8.82;;
48849;SDS011;63210;53.370;6.770;2023-05-10T08:21:03;7.32;;;6.70;;
48849;SDS011;63210;53.370;6.770;2023-05-10T08:23:29;7.00;;;6.40;;
48849;SDS011;63210;53.370;6.770;2023-05-10T08:25:54;7.70;;;7.05;;
48849;SDS011;63210;53.370;6.770;2023-05-10T08:28:19;4.95;;;4.55;;
48849;SDS011;63210;53.370;6.770;2023-05-10T08:30:49;5.63;;;4.65;;
48849;SDS011;63210;53.370;6.770;2023-05-10T08:33:18;4.60;;;4.15;;
48849;SDS011;63210;53.370;6.770;2023-05-10T08:35:44;4.32;;;3.83;;
48849;SDS011;63210;53.370;6.770;2023-05-10T08:38:13;5.07;;;4.68;;
48849;SDS011;63210;53.370;6.770;2023-05-10T08:43:18;8.40;;;6.75;;
48849;SDS011;63210;53.370;6.770;2023-05-10T08:45:47;5.53;;;4.82;;
48849;SDS011;63210;53.370;6.770;2023-05-10T08:48:14;6.40;;;5.78;;
48849;SDS011;63210;53.370;6.770;2023-05-10T08:50:43;4.65;;;4.25;;
48849;SDS011;63210;53.370;6.770;2023-05-10T08:53:16;4.55;;;4.13;;
48849;SDS011;63210;53.370;6.770;2023-05-10T08:55:49;4.57;;;4.13;;
48849;SDS011;63210;53.370;6.770;2023-05-10T08:58:14;3.45;;;3.15;;
48849;SDS011;63210;53.370;6.770;2023-05-10T09:00:52;3.30;;;3.00;;
48849;SDS011;63210;53.370;6.770;2023-05-10T09:03:18;2.50;;;2.30;;
48849;SDS011;63210;53.370;6.770;2023-05-10T09:05:47;2.47;;;2.25;;
48849;SDS011;63210;53.370;6.770;2023-05-10T09:08:16;2.47;;;2.28;;
48849;SDS011;63210;53.370;6.770;2023-05-10T09:10:45;1.80;;;1.70;;
48849;SDS011;63210;53.370;6.770;2023-05-10T09:13:14;2.80;;;2.60;;
48849;SDS011;63210;53.370;6.770;2023-05-10T09:15:40;2.50;;;2.30;;
48849;SDS011;63210;53.370;6.770;2023-05-10T09:18:09;3.15;;;2.85;;
48849;SDS011;63210;53.370;6.770;2023-05-10T09:20:40;5.78;;;3.03;;
48849;SDS011;63210;53.370;6.770;2023-05-10T09:23:08;3.17;;;2.97;;
48849;SDS011;63210;53.370;6.770;2023-05-10T09:26:05;2.90;;;2.70;;
48849;SDS011;63210;53.370;6.770;2023-05-10T09:28:55;2.55;;;2.35;;
48849;SDS011;63210;53.370;6.770;2023-05-10T09:31:24;2.70;;;2.47;;
48849;SDS011;63210;53.370;6.770;2023-05-10T09:33:52;2.80;;;2.60;;
48849;SDS011;63210;53.370;6.770;2023-05-10T09:36:21;3.83;;;3.35;;
48849;SDS011;63210;53.370;6.770;2023-05-10T09:38:47;4.72;;;3.83;;
48849;SDS011;63210;53.370;6.770;2023-05-10T09:41:16;4.18;;;3.78;;
48849;SDS011;63210;53.370;6.770;2023-05-10T09:43:47;4.13;;;3.70;;
48849;SDS011;63210;53.370;6.770;2023-05-10T09:46:16;4.07;;;3.60;;
48849;SDS011;63210;53.370;6.770;2023-05-10T09:48:42;3.50;;;3.20;;
48849;SDS011;63210;53.370;6.770;2023-05-10T09:51:08;4.20;;;3.15;;
48849;SDS011;63210;53.370;6.770;2023-05-10T09:53:37;3.58;;;3.10;;
48849;SDS011;63210;53.370;6.770;2023-05-10T09:56:02;4.95;;;3.55;;
48849;SDS011;63210;53.370;6.770;2023-05-10T09:58:28;4.00;;;3.50;;
48849;SDS011;63210;53.370;6.770;2023-05-10T10:00:58;4.53;;;3.17;;
48849;SDS011;63210;53.370;6.770;2023-05-10T10:03:24;4.38;;;3.50;;
48849;SDS011;63210;53.370;6.770;2023-05-10T10:05:49;3.67;;;3.33;;
48849;SDS011;63210;53.370;6.770;2023-05-10T10:08:18;3.63;;;3.30;;
48849;SDS011;63210;53.370;6.770;2023-05-10T10:10:43;6.05;;;3.95;;
48849;SDS011;63210;53.370;6.770;2023-05-10T10:13:13;5.30;;;4.72;;
48849;SDS011;63210;53.370;6.770;2023-05-10T10:15:44;7.00;;;4.47;;
48849;SDS011;63210;53.370;6.770;2023-05-10T10:20:57;7.07;;;3.63;;
48849;SDS011;63210;53.370;6.770;2023-05-10T10:23:24;5.60;;;3.90;;
48849;SDS011;63210;53.370;6.770;2023-05-10T10:25:50;4.28;;;2.90;;
48849;SDS011;63210;53.370;6.770;2023-05-10T10:28:24;5.18;;;3.20;;
48849;SDS011;63210;53.370;6.770;2023-05-10T10:30:52;3.10;;;2.85;;
48849;SDS011;63210;53.370;6.770;2023-05-10T10:36:04;4.40;;;3.70;;
48849;SDS011;63210;53.370;6.770;2023-05-10T10:41:30;5.70;;;4.72;;
48849;SDS011;63210;53.370;6.770;2023-05-10T10:44:47;6.50;;;4.65;;
48849;SDS011;63210;53.370;6.770;2023-05-10T10:54:40;5.90;;;3.63;;
48849;SDS011;63210;53.370;6.770;2023-05-10T10:57:13;3.63;;;3.33;;
48849;SDS011;63210;53.370;6.770;2023-05-10T10:59:42;2.88;;;2.60;;
48849;SDS011;63210;53.370;6.770;2023-05-10T11:02:32;5.13;;;3.33;;
48849;SDS011;63210;53.370;6.770;2023-05-10T11:04:57;3.53;;;2.80;;
48849;SDS011;63210;53.370;6.770;2023-05-10T11:07:23;3.05;;;2.30;;
48849;SDS011;63210;53.370;6.770;2023-05-10T11:09:52;3.05;;;2.00;;
48849;SDS011;63210;53.370;6.770;2023-05-10T11:12:19;2.63;;;2.17;;
48849;SDS011;63210;53.370;6.770;2023-05-10T11:14:49;3.65;;;2.50;;
48849;SDS011;63210;53.370;6.770;2023-05-10T11:17:24;2.60;;;2.00;;
48849;SDS011;63210;53.370;6.770;2023-05-10T11:20:09;3.42;;;2.20;;
48849;SDS011;63210;53.370;6.770;2023-05-10T11:22:51;3.38;;;2.85;;
48849;SDS011;63210;53.370;6.770;2023-05-10T11:25:17;5.47;;;3.45;;
48849;SDS011;63210;53.370;6.770;2023-05-10T11:27:42;4.40;;;3.92;;
48849;SDS011;63210;53.370;6.770;2023-05-10T11:30:08;5.78;;;4.93;;
48849;SDS011;63210;53.370;6.770;2023-05-10T11:32:36;6.95;;;4.00;;
48849;SDS011;63210;53.370;6.770;2023-05-10T11:35:12;4.47;;;4.07;;
48849;SDS011;63210;53.370;6.770;2023-05-10T11:37:38;4.97;;;4.43;;
48849;SDS011;63210;53.370;6.770;2023-05-10T11:40:07;4.40;;;3.85;;
48849;SDS011;63210;53.370;6.770;2023-05-10T11:42:35;4.55;;;3.80;;
48849;SDS011;63210;53.370;6.770;2023-05-10T11:45:01;7.88;;;4.72;;
48849;SDS011;63210;53.370;6.770;2023-05-10T11:47:26;4.43;;;4.03;;
48849;SDS011;63210;53.370;6.770;2023-05-10T11:49:52;5.85;;;4.28;;
48849;SDS011;63210;53.370;6.770;2023-05-10T11:52:18;7.63;;;5.05;;
48849;SDS011;63210;53.370;6.770;2023-05-10T11:54:53;7.28;;;4.57;;
48849;SDS011;63210;53.370;6.770;2023-05-10T11:57:19;8.70;;;5.57;;
48849;SDS011;63210;53.370;6.770;2023-05-10T11:59:46;8.48;;;6.10;;
48849;SDS011;63210;53.370;6.770;2023-05-10T12:02:11;8.35;;;5.60;;
48849;SDS011;63210;53.370;6.770;2023-05-10T12:04:37;11.48;;;6.65;;
48849;SDS011;63210;53.370;6.770;2023-05-10T12:07:02;9.30;;;6.15;;
48849;SDS011;63210;53.370;6.770;2023-05-10T12:09:28;7.97;;;6.53;;
48849;SDS011;63210;53.370;6.770;2023-05-10T12:11:55;7.53;;;5.10;;
48849;SDS011;63210;53.370;6.770;2023-05-10T12:14:24;7.18;;;4.93;;
48849;SDS011;63210;53.370;6.770;2023-05-10T12:16:50;7.53;;;5.38;;
48849;SDS011;63210;53.370;6.770;2023-05-10T12:19:19;9.65;;;5.90;;
48849;SDS011;63210;53.370;6.770;2023-05-10T12:21:52;11.03;;;6.80;;
48849;SDS011;63210;53.370;6.770;2023-05-10T12:24:19;9.38;;;5.97;;
48849;SDS011;63210;53.370;6.770;2023-05-10T12:26:46;10.15;;;7.40;;
48849;SDS011;63210;53.370;6.770;2023-05-10T12:29:16;10.18;;;8.07;;
48849;SDS011;63210;53.370;6.770;2023-05-10T12:31:54;13.45;;;9.70;;
48849;SDS011;63210;53.370;6.770;2023-05-10T12:34:24;9.95;;;7.60;;
48849;SDS011;63210;53.370;6.770;2023-05-10T12:36:53;10.52;;;8.82;;
48849;SDS011;63210;53.370;6.770;2023-05-10T12:39:21;11.57;;;9.23;;
48849;SDS011;63210;53.370;6.770;2023-05-10T12:41:46;12.75;;;8.68;;
48849;SDS011;63210;53.370;6.770;2023-05-10T12:44:11;10.18;;;7.32;;
48849;SDS011;63210;53.370;6.770;2023-05-10T12:46:37;11.43;;;8.60;;
48849;SDS011;63210;53.370;6.770;2023-05-10T12:49:05;12.07;;;8.95;;
48849;SDS011;63210;53.370;6.770;2023-05-10T12:51:31;11.40;;;8.98;;
48849;SDS011;63210;53.370;6.770;2023-05-10T12:53:56;12.52;;;9.18;;
48849;SDS011;63210;53.370;6.770;2023-05-10T12:56:22;11.65;;;9.40;;
48849;SDS011;63210;53.370;6.770;2023-05-10T12:58:47;15.32;;;10.98;;
48849;SDS011;63210;53.370;6.770;2023-05-10T13:01:13;12.38;;;9.05;;
48849;SDS011;63210;53.370;6.770;2023-05-10T13:03:39;11.38;;;9.05;;
48849;SDS011;63210;53.370;6.770;2023-05-10T13:06:04;8.40;;;6.68;;
48849;SDS011;63210;53.370;6.770;2023-05-10T13:08:30;11.98;;;7.88;;
48849;SDS011;63210;53.370;6.770;2023-05-10T13:10:58;9.02;;;7.40;;
48849;SDS011;63210;53.370;6.770;2023-05-10T13:13:24;9.85;;;6.45;;
48849;SDS011;63210;53.370;6.770;2023-05-10T13:15:49;8.13;;;7.00;;
48849;SDS011;63210;53.370;6.770;2023-05-10T13:18:18;9.35;;;6.90;;
48849;SDS011;63210;53.370;6.770;2023-05-10T13:20:46;9.02;;;7.35;;
48849;SDS011;63210;53.370;6.770;2023-05-10T13:23:11;6.07;;;5.32;;
48849;SDS011;63210;53.370;6.770;2023-05-10T13:25:36;8.57;;;6.65;;
48849;SDS011;63210;53.370;6.770;2023-05-10T13:28:02;9.40;;;8.27;;
48849;SDS011;63210;53.370;6.770;2023-05-10T13:30:27;9.07;;;6.80;;
48849;SDS011;63210;53.370;6.770;2023-05-10T13:32:53;8.55;;;7.22;;
48849;SDS011;63210;53.370;6.770;2023-05-10T13:35:19;8.13;;;6.82;;
48849;SDS011;63210;53.370;6.770;2023-05-10T13:37:44;8.15;;;7.25;;
48849;SDS011;63210;53.370;6.770;2023-05-10T13:40:09;8.90;;;7.35;;
48849;SDS011;63210;53.370;6.770;2023-05-10T13:42:35;10.93;;;8.20;;
48849;SDS011;63210;53.370;6.770;2023-05-10T13:45:00;11.23;;;8.13;;
48849;SDS011;63210;53.370;6.770;2023-05-10T13:47:27;11.98;;;8.25;;
48849;SDS011;63210;53.370;6.770;2023-05-10T13:49:52;10.15;;;7.75;;
48849;SDS011;63210;53.370;6.770;2023-05-10T13:52:17;7.53;;;6.07;;
48849;SDS011;63210;53.370;6.770;2023-05-10T13:54:43;6.63;;;5.63;;
48849;SDS011;63210;53.370;6.770;2023-05-10T13:57:08;6.97;;;5.18;;
48849;SDS011;63210;53.370;6.770;2023-05-10T13:59:39;7.28;;;4.68;;
48849;SDS011;63210;53.370;6.770;2023-05-10T14:04:30;6.03;;;5.40;;
48849;SDS011;63210;53.370;6.770;2023-05-10T14:06:56;10.57;;;5.03;;
48849;SDS011;63210;53.370;6.770;2023-05-10T14:09:21;8.30;;;6.45;;
48849;SDS011;63210;53.370;6.770;2023-05-10T14:11:47;7.13;;;5.25;;
48849;SDS011;63210;53.370;6.770;2023-05-10T14:14:12;7.72;;;6.55;;
48849;SDS011;63210;53.370;6.770;2023-05-10T14:16:40;6.57;;;5.88;;
48849;SDS011;63210;53.370;6.770;2023-05-10T14:19:06;9.00;;;6.43;;
48849;SDS011;63210;53.370;6.770;2023-05-10T14:21:31;8.95;;;7.70;;
48849;SDS011;63210;53.370;6.770;2023-05-10T14:23:57;8.40;;;7.10;;
48849;SDS011;63210;53.370;6.770;2023-05-10T14:26:22;9.27;;;7.85;;
48849;SDS011;63210;53.370;6.770;2023-05-10T14:28:47;13.88;;;9.60;;
48849;SDS011;63210;53.370;6.770;2023-05-10T14:31:13;12.38;;;9.40;;
48849;SDS011;63210;53.370;6.770;2023-05-10T14:33:39;12.52;;;9.48;;
48849;SDS011;63210;53.370;6.770;2023-05-10T14:36:05;12.43;;;9.27;;
48849;SDS011;63210;53.370;6.770;2023-05-10T14:38:31;11.00;;;8.45;;
48849;SDS011;63210;53.370;6.770;2023-05-10T14:40:56;12.95;;;10.55;;
48849;SDS011;63210;53.370;6.770;2023-05-10T14:43:22;11.77;;;10.45;;
48849;SDS011;63210;53.370;6.770;2023-05-10T14:45:47;15.77;;;9.98;;
48849;SDS011;63210;53.370;6.770;2023-05-10T14:48:13;15.10;;;11.63;;
48849;SDS011;63210;53.370;6.770;2023-05-10T14:50:41;13.65;;;10.27;;
48849;SDS011;63210;53.370;6.770;2023-05-10T14:53:06;14.75;;;10.50;;
48849;SDS011;63210;53.370;6.770;2023-05-10T14:55:31;14.50;;;11.15;;
48849;SDS011;63210;53.370;6.770;2023-05-10T14:57:57;15.60;;;11.00;;
48849;SDS011;63210;53.370;6.770;2023-05-10T15:00:23;14.02;;;9.82;;
48849;SDS011;63210;53.370;6.770;2023-05-10T15:02:48;11.77;;;9.27;;
48849;SDS011;63210;53.370;6.770;2023-05-10T15:05:14;12.75;;;9.98;;
48849;SDS011;63210;53.370;6.770;2023-05-10T15:07:39;10.20;;;8.27;;
48849;SDS011;63210;53.370;6.770;2023-05-10T15:10:05;10.07;;;8.18;;
48849;SDS011;63210;53.370;6.770;2023-05-10T15:12:31;8.02;;;7.20;;
48849;SDS011;63210;53.370;6.770;2023-05-10T15:14:56;8.95;;;7.65;;
48849;SDS011;63210;53.370;6.770;2023-05-10T15:17:21;11.23;;;9.13;;
48849;SDS011;63210;53.370;6.770;2023-05-10T15:19:46;13.13;;;10.98;;
48849;SDS011;63210;53.370;6.770;2023-05-10T15:22:12;10.02;;;8.88;;